createdAt,value
2022-08-17T00:00:39.858Z,0
2022-08-17T00:01:56.962Z,0
2022-08-17T00:03:14.066Z,0
2022-08-17T00:04:31.170Z,0
2022-08-17T00:05:48.274Z,0
2022-08-17T00:07:05.378Z,0
2022-08-17T00:08:22.482Z,0
2022-08-17T00:09:39.585Z,0
2022-08-17T00:10:55.705Z,0
2022-08-17T00:12:12.809Z,0
2022-08-17T00:13:29.914Z,0
2022-08-17T00:14:47.017Z,0
2022-08-17T00:16:04.121Z,0
2022-08-17T00:17:21.225Z,0
2022-08-17T00:18:38.329Z,0
2022-08-17T00:19:55.433Z,0
2022-08-17T00:21:12.537Z,0
2022-08-17T00:22:29.640Z,0
2022-08-17T00:23:46.745Z,0
2022-08-17T00:25:03.848Z,0
2022-08-17T00:26:20.952Z,0
2022-08-17T00:27:37.072Z,0
2022-08-17T00:28:54.176Z,0
2022-08-17T00:30:11.280Z,0
2022-08-17T00:31:28.384Z,0
2022-08-17T00:32:45.488Z,0
2022-08-17T00:34:02.592Z,0
2022-08-17T00:35:19.696Z,0
2022-08-17T00:36:36.800Z,0
2022-08-17T00:37:53.903Z,0
2022-08-17T00:39:11.005Z,0
2022-08-17T00:40:28.109Z,0
2022-08-17T00:41:45.213Z,0
2022-08-17T00:43:02.317Z,0
2022-08-17T00:44:18.437Z,0
2022-08-17T00:45:35.541Z,0
2022-08-17T00:46:52.645Z,0
2022-08-17T00:48:09.749Z,0
2022-08-17T00:49:26.853Z,0
2022-08-17T00:50:43.956Z,0
2022-08-17T00:52:01.060Z,0
2022-08-17T00:53:18.164Z,0
2022-08-17T00:54:35.268Z,0
2022-08-17T00:55:52.372Z,0
2022-08-17T00:57:09.476Z,0
2022-08-17T00:58:26.580Z,0
2022-08-17T00:59:43.683Z,0
2022-08-17T01:00:59.803Z,0
2022-08-17T01:02:16.907Z,0
2022-08-17T01:03:34.011Z,0
2022-08-17T01:04:51.115Z,0
2022-08-17T01:06:08.219Z,0
2022-08-17T01:07:25.323Z,0
2022-08-17T01:08:42.427Z,0
2022-08-17T01:09:59.531Z,0
2022-08-17T01:11:16.635Z,0
2022-08-17T01:12:33.739Z,0
2022-08-17T01:13:50.843Z,0
2022-08-17T01:15:07.947Z,0
2022-08-17T01:16:25.051Z,0
2022-08-17T01:17:41.171Z,0
2022-08-17T01:18:58.275Z,0
2022-08-17T01:20:15.380Z,0
2022-08-17T01:21:32.484Z,0
2022-08-17T01:22:49.587Z,0
2022-08-17T01:24:06.691Z,0
2022-08-17T01:25:23.795Z,0
2022-08-17T01:26:40.900Z,0
2022-08-17T01:27:58.004Z,0
2022-08-17T01:29:15.108Z,0
2022-08-17T01:30:32.212Z,0
2022-08-17T01:31:49.317Z,0
2022-08-17T01:33:06.421Z,0
2022-08-17T01:34:22.541Z,0
2022-08-17T01:35:39.645Z,0
2022-08-17T01:36:56.749Z,0
2022-08-17T01:38:13.853Z,0
2022-08-17T01:39:30.957Z,0
2022-08-17T01:40:48.061Z,0
2022-08-17T01:42:05.165Z,0
2022-08-17T01:43:22.269Z,0
2022-08-17T01:44:39.373Z,0
2022-08-17T01:45:56.478Z,0
2022-08-17T01:47:13.582Z,0
2022-08-17T01:48:30.686Z,0
2022-08-17T01:49:47.790Z,0
2022-08-17T01:51:03.911Z,0
2022-08-17T01:52:21.015Z,0
2022-08-17T01:53:38.120Z,0
2022-08-17T01:54:55.224Z,0
2022-08-17T01:56:12.329Z,0
2022-08-17T01:57:29.433Z,0
2022-08-17T01:58:46.538Z,0
2022-08-17T02:00:03.642Z,0
2022-08-17T02:01:20.747Z,0
2022-08-17T02:02:37.851Z,0
2022-08-17T02:03:54.956Z,0
2022-08-17T02:05:12.060Z,0
2022-08-17T02:06:29.164Z,0
2022-08-17T02:07:45.284Z,0
2022-08-17T02:09:02.388Z,0
2022-08-17T02:10:19.492Z,0
2022-08-17T02:11:36.597Z,0
2022-08-17T02:12:53.701Z,0
2022-08-17T02:14:10.805Z,0
2022-08-17T02:15:27.909Z,0
2022-08-17T02:16:45.013Z,0
2022-08-17T02:18:02.117Z,0
2022-08-17T02:19:19.221Z,0
2022-08-17T02:20:36.326Z,0
2022-08-17T02:21:53.430Z,0
2022-08-17T02:23:10.535Z,0
2022-08-17T02:24:26.655Z,0
2022-08-17T02:25:43.760Z,0
2022-08-17T02:27:00.865Z,0
2022-08-17T02:28:17.969Z,0
2022-08-17T02:29:35.073Z,0
2022-08-17T02:30:52.178Z,0
2022-08-17T02:32:09.282Z,0
2022-08-17T02:33:26.386Z,0
2022-08-17T02:34:43.490Z,0
2022-08-17T02:36:00.594Z,0
2022-08-17T02:37:17.699Z,0
2022-08-17T02:38:34.803Z,0
2022-08-17T02:39:51.908Z,0
2022-08-17T02:41:08.028Z,0
2022-08-17T02:42:25.133Z,0
2022-08-17T02:43:42.237Z,0
2022-08-17T02:44:59.341Z,0
2022-08-17T02:46:16.446Z,0
2022-08-17T02:47:33.550Z,0
2022-08-17T02:48:50.655Z,0
2022-08-17T02:50:07.759Z,0
2022-08-17T02:51:24.864Z,0
2022-08-17T02:52:41.968Z,0
2022-08-17T02:53:59.073Z,0
2022-08-17T02:55:16.177Z,0
2022-08-17T02:56:33.281Z,0
2022-08-17T02:57:49.402Z,0
2022-08-17T02:59:06.506Z,0
2022-08-17T03:00:23.611Z,0
2022-08-17T03:01:40.715Z,0
2022-08-17T03:02:57.820Z,0
2022-08-17T03:04:14.924Z,0
2022-08-17T03:05:32.028Z,0
2022-08-17T03:06:49.133Z,0
2022-08-17T03:08:06.237Z,0
2022-08-17T03:09:23.341Z,0
2022-08-17T03:10:40.445Z,0
2022-08-17T03:11:57.550Z,0
2022-08-17T03:13:14.654Z,0
2022-08-17T03:14:30.775Z,0
2022-08-17T03:15:47.879Z,0
2022-08-17T03:17:04.983Z,0
2022-08-17T03:18:22.088Z,0
2022-08-17T03:19:39.192Z,0
2022-08-17T03:20:56.296Z,0
2022-08-17T03:22:12.417Z,0
2022-08-17T03:23:29.521Z,0
2022-08-17T03:24:46.626Z,0
2022-08-17T03:26:03.730Z,0
2022-08-17T03:27:20.834Z,0
2022-08-17T03:28:37.936Z,0
2022-08-17T03:29:55.041Z,0
2022-08-17T03:31:12.145Z,0
2022-08-17T03:32:29.249Z,0
2022-08-17T03:33:46.354Z,0
2022-08-17T03:35:03.459Z,4
2022-08-17T03:36:20.563Z,4
2022-08-17T03:37:37.667Z,0
2022-08-17T03:38:53.788Z,0
2022-08-17T03:40:10.892Z,4
2022-08-17T03:41:27.996Z,0
2022-08-17T03:42:45.101Z,4
2022-08-17T03:44:02.205Z,4
2022-08-17T03:45:19.309Z,4
2022-08-17T03:46:36.413Z,4
2022-08-17T03:47:53.518Z,4
2022-08-17T03:49:10.622Z,8
2022-08-17T03:50:27.726Z,8
2022-08-17T03:51:44.830Z,8
2022-08-17T03:53:01.934Z,8
2022-08-17T03:54:19.038Z,16
2022-08-17T03:55:35.159Z,20
2022-08-17T03:56:52.263Z,20
2022-08-17T03:58:09.367Z,24
2022-08-17T03:59:26.472Z,28
2022-08-17T04:00:43.576Z,32
2022-08-17T04:02:00.680Z,40
2022-08-17T04:03:17.784Z,44
2022-08-17T04:04:34.889Z,52
2022-08-17T04:05:51.993Z,60
2022-08-17T04:07:09.098Z,68
2022-08-17T04:08:26.202Z,84
2022-08-17T04:09:43.307Z,100
2022-08-17T04:11:00.411Z,120
2022-08-17T04:12:16.532Z,136
2022-08-17T04:13:33.636Z,148
2022-08-17T04:14:50.740Z,164
2022-08-17T04:16:07.845Z,192
2022-08-17T04:17:24.950Z,224
2022-08-17T04:18:42.055Z,232
2022-08-17T04:19:59.159Z,248
2022-08-17T04:21:16.264Z,272
2022-08-17T04:22:33.368Z,284
2022-08-17T04:23:50.473Z,300
2022-08-17T04:25:07.577Z,312
2022-08-17T04:26:24.681Z,320
2022-08-17T04:27:41.786Z,332
2022-08-17T04:28:57.907Z,352
2022-08-17T04:30:15.011Z,384
2022-08-17T04:31:32.116Z,412
2022-08-17T04:32:49.220Z,460
2022-08-17T04:34:06.325Z,512
2022-08-17T04:35:23.429Z,580
2022-08-17T04:36:40.533Z,668
2022-08-17T04:37:57.638Z,756
2022-08-17T04:39:14.742Z,892
2022-08-17T04:40:31.847Z,1036
2022-08-17T04:41:48.952Z,1116
2022-08-17T04:43:06.057Z,1184
2022-08-17T04:44:23.161Z,1192
2022-08-17T04:45:39.282Z,1236
2022-08-17T04:46:56.386Z,1364
2022-08-17T04:48:13.490Z,1424
2022-08-17T04:49:30.595Z,1444
2022-08-17T04:50:47.699Z,1500
2022-08-17T04:52:04.804Z,1556
2022-08-17T04:53:21.908Z,1612
2022-08-17T04:54:39.013Z,1660
2022-08-17T04:55:56.117Z,1704
2022-08-17T04:57:13.222Z,1744
2022-08-17T04:58:30.326Z,1780
2022-08-17T04:59:47.430Z,1808
2022-08-17T05:01:04.534Z,1844
2022-08-17T05:02:20.655Z,1876
2022-08-17T05:03:37.760Z,1900
2022-08-17T05:04:54.864Z,1920
2022-08-17T05:06:11.968Z,1932
2022-08-17T05:07:29.073Z,1936
2022-08-17T05:08:46.177Z,1932
2022-08-17T05:10:03.281Z,1932
2022-08-17T05:11:20.385Z,1932
2022-08-17T05:12:37.489Z,1940
2022-08-17T05:13:54.594Z,1972
2022-08-17T05:15:11.698Z,2032
2022-08-17T05:16:28.802Z,2124
2022-08-17T05:17:45.906Z,2172
2022-08-17T05:19:02.027Z,2172
2022-08-17T05:20:19.130Z,2192
2022-08-17T05:21:36.234Z,2228
2022-08-17T05:22:53.338Z,2284
2022-08-17T05:24:10.442Z,2352
2022-08-17T05:25:27.546Z,2444
2022-08-17T05:26:44.650Z,2556
2022-08-17T05:28:01.754Z,2644
2022-08-17T05:29:18.858Z,2736
2022-08-17T05:30:35.962Z,2828
2022-08-17T05:31:53.066Z,2912
2022-08-17T05:33:10.170Z,3008
2022-08-17T05:34:27.274Z,3100
2022-08-17T05:35:43.394Z,3164
2022-08-17T05:37:00.498Z,3280
2022-08-17T05:38:17.602Z,3436
2022-08-17T05:39:34.706Z,3624
2022-08-17T05:40:51.810Z,3844
2022-08-17T05:42:08.913Z,4088
2022-08-17T05:43:26.017Z,4316
2022-08-17T05:44:43.121Z,4504
2022-08-17T05:46:00.225Z,4684
2022-08-17T05:47:17.329Z,4896
2022-08-17T05:48:34.433Z,5204
2022-08-17T05:49:51.537Z,5560
2022-08-17T05:51:08.640Z,6720
2022-08-17T05:52:24.760Z,6760
2022-08-17T05:53:41.864Z,6648
2022-08-17T05:54:58.968Z,7924
2022-08-17T05:56:16.072Z,7252
2022-08-17T05:57:33.176Z,6428
2022-08-17T05:58:50.280Z,6796
2022-08-17T06:00:07.385Z,6060
2022-08-17T06:01:24.489Z,6008
2022-08-17T06:02:41.593Z,6420
2022-08-17T06:03:58.697Z,6568
2022-08-17T06:05:15.801Z,6968
2022-08-17T06:06:32.905Z,7632
2022-08-17T06:07:50.009Z,8124
2022-08-17T06:09:06.130Z,9496
2022-08-17T06:10:23.234Z,11088
2022-08-17T06:11:40.339Z,13144
2022-08-17T06:12:57.443Z,14784
2022-08-17T06:14:14.547Z,16512
2022-08-17T06:15:31.651Z,27424
2022-08-17T06:16:48.755Z,28768
2022-08-17T06:18:05.859Z,25536
2022-08-17T06:19:22.963Z,18720
2022-08-17T06:20:40.067Z,13528
2022-08-17T06:21:57.171Z,12776
2022-08-17T06:23:14.275Z,14728
2022-08-17T06:24:31.379Z,19968
2022-08-17T06:25:47.499Z,12980
2022-08-17T06:27:04.603Z,13180
2022-08-17T06:28:21.708Z,15808
2022-08-17T06:29:38.812Z,13932
2022-08-17T06:30:55.916Z,11008
2022-08-17T06:32:13.021Z,9892
2022-08-17T06:33:30.125Z,9268
2022-08-17T06:34:47.229Z,8412
2022-08-17T06:36:04.333Z,7556
2022-08-17T06:37:21.437Z,7312
2022-08-17T06:38:38.541Z,7152
2022-08-17T06:39:55.646Z,7180
2022-08-17T06:41:12.750Z,6988
2022-08-17T06:42:28.870Z,6864
2022-08-17T06:43:45.975Z,6908
2022-08-17T06:45:03.079Z,6920
2022-08-17T06:46:20.183Z,6928
2022-08-17T06:47:37.287Z,6940
2022-08-17T06:48:54.391Z,7176
2022-08-17T06:50:11.496Z,7516
2022-08-17T06:51:28.600Z,8156
2022-08-17T06:52:45.704Z,9468
2022-08-17T06:54:02.808Z,9492
2022-08-17T06:55:19.912Z,9496
2022-08-17T06:56:37.016Z,9764
2022-08-17T06:57:54.120Z,10864
2022-08-17T06:59:10.241Z,11276
2022-08-17T07:00:27.345Z,13452
2022-08-17T07:01:44.449Z,17024
2022-08-17T07:03:01.553Z,14216
2022-08-17T07:04:18.657Z,14308
2022-08-17T07:05:35.762Z,11544
2022-08-17T07:06:52.865Z,11712
2022-08-17T07:08:09.969Z,15192
2022-08-17T07:09:27.073Z,17760
2022-08-17T07:10:44.177Z,17664
2022-08-17T07:12:01.281Z,17120
2022-08-17T07:13:18.385Z,13668
2022-08-17T07:14:35.489Z,12024
2022-08-17T07:15:51.609Z,10876
2022-08-17T07:17:08.712Z,9924
2022-08-17T07:18:25.816Z,9432
2022-08-17T07:19:42.920Z,9192
2022-08-17T07:21:00.024Z,9020
2022-08-17T07:22:17.129Z,8860
2022-08-17T07:23:34.233Z,8748
2022-08-17T07:24:51.337Z,8740
2022-08-17T07:26:08.441Z,8972
2022-08-17T07:27:25.545Z,9032
2022-08-17T07:28:42.649Z,9348
2022-08-17T07:29:59.753Z,9760
2022-08-17T07:31:16.858Z,10888
2022-08-17T07:32:32.978Z,11120
2022-08-17T07:33:50.082Z,12804
2022-08-17T07:35:07.186Z,11004
2022-08-17T07:36:24.290Z,11488
2022-08-17T07:37:41.394Z,12164
2022-08-17T07:38:58.498Z,12252
2022-08-17T07:40:14.618Z,12408
2022-08-17T07:41:31.723Z,12764
2022-08-17T07:42:48.827Z,13712
2022-08-17T07:44:05.931Z,14476
2022-08-17T07:45:23.035Z,15468
2022-08-17T07:46:40.139Z,15392
2022-08-17T07:47:57.243Z,23936
2022-08-17T07:49:14.348Z,21088
2022-08-17T07:50:31.452Z,17664
2022-08-17T07:51:48.556Z,17408
2022-08-17T07:53:05.660Z,18720
2022-08-17T07:54:22.764Z,18176
2022-08-17T07:55:39.868Z,17152
2022-08-17T07:56:55.989Z,16096
2022-08-17T07:58:13.093Z,15608
2022-08-17T07:59:30.197Z,15512
2022-08-17T08:00:47.301Z,16160
2022-08-17T08:02:04.406Z,15496
2022-08-17T08:03:21.510Z,14936
2022-08-17T08:04:38.615Z,14888
2022-08-17T08:05:55.719Z,14136
2022-08-17T08:07:12.823Z,13396
2022-08-17T08:08:29.928Z,12960
2022-08-17T08:09:47.033Z,12780
2022-08-17T08:11:04.137Z,13752
2022-08-17T08:12:21.242Z,15416
2022-08-17T08:13:37.363Z,18784
2022-08-17T08:14:54.468Z,17760
2022-08-17T08:16:11.572Z,17056
2022-08-17T08:17:28.677Z,16768
2022-08-17T08:18:45.782Z,15632
2022-08-17T08:20:02.886Z,14008
2022-08-17T08:21:19.991Z,13060
2022-08-17T08:22:37.095Z,12324
2022-08-17T08:23:54.200Z,12260
2022-08-17T08:25:11.305Z,12048
2022-08-17T08:26:28.409Z,12028
2022-08-17T08:27:45.514Z,12452
2022-08-17T08:29:02.619Z,12624
2022-08-17T08:30:18.739Z,12416
2022-08-17T08:31:35.844Z,12396
2022-08-17T08:32:52.949Z,13592
2022-08-17T08:34:10.053Z,13516
2022-08-17T08:35:27.158Z,13744
2022-08-17T08:36:44.263Z,13932
2022-08-17T08:38:01.367Z,14116
2022-08-17T08:39:18.471Z,14840
2022-08-17T08:40:35.576Z,15160
2022-08-17T08:41:52.680Z,15524
2022-08-17T08:43:09.785Z,15904
2022-08-17T08:44:26.889Z,15620
2022-08-17T08:45:43.993Z,15308
2022-08-17T08:47:00.113Z,15044
2022-08-17T08:48:17.217Z,14896
2022-08-17T08:49:34.322Z,14280
2022-08-17T08:50:51.426Z,13760
2022-08-17T08:52:08.528Z,13288
2022-08-17T08:53:25.632Z,12772
2022-08-17T08:54:42.737Z,12472
2022-08-17T08:55:59.841Z,12048
2022-08-17T08:57:16.946Z,11628
2022-08-17T08:58:34.050Z,11292
2022-08-17T08:59:51.154Z,10972
2022-08-17T09:01:08.259Z,10604
2022-08-17T09:02:25.363Z,10052
2022-08-17T09:03:41.484Z,9356
2022-08-17T09:04:58.588Z,8776
2022-08-17T09:06:15.692Z,8512
2022-08-17T09:07:32.794Z,8472
2022-08-17T09:08:49.899Z,8656
2022-08-17T09:10:07.003Z,8864
2022-08-17T09:11:24.107Z,8980
2022-08-17T09:12:41.212Z,9100
2022-08-17T09:13:58.316Z,9516
2022-08-17T09:15:15.421Z,9728
2022-08-17T09:16:32.525Z,9680
2022-08-17T09:17:49.629Z,9956
2022-08-17T09:19:06.734Z,10096
2022-08-17T09:20:22.855Z,10476
2022-08-17T09:21:39.959Z,10764
2022-08-17T09:22:57.064Z,10392
2022-08-17T09:24:14.168Z,10088
2022-08-17T09:25:31.272Z,9760
2022-08-17T09:26:48.377Z,9368
2022-08-17T09:28:05.481Z,8980
2022-08-17T09:29:22.586Z,8576
2022-08-17T09:30:39.691Z,8168
2022-08-17T09:31:56.795Z,7832
2022-08-17T09:33:13.900Z,7568
2022-08-17T09:34:31.005Z,7332
2022-08-17T09:35:48.109Z,7172
2022-08-17T09:37:04.230Z,7116
2022-08-17T09:38:21.335Z,7152
2022-08-17T09:39:38.439Z,7188
2022-08-17T09:40:55.544Z,7188
2022-08-17T09:42:12.649Z,7260
2022-08-17T09:43:29.753Z,7524
2022-08-17T09:44:46.858Z,7904
2022-08-17T09:46:03.963Z,8148
2022-08-17T09:47:21.067Z,8124
2022-08-17T09:48:38.171Z,7816
2022-08-17T09:49:55.277Z,7392
2022-08-17T09:51:12.381Z,6968
2022-08-17T09:52:29.485Z,6464
2022-08-17T09:53:45.606Z,5908
2022-08-17T09:55:02.710Z,5348
2022-08-17T09:56:19.815Z,4864
2022-08-17T09:57:36.919Z,4500
2022-08-17T09:58:54.023Z,4204
2022-08-17T10:00:11.128Z,3936
2022-08-17T10:01:28.232Z,3672
2022-08-17T10:02:45.336Z,3416
2022-08-17T10:04:02.440Z,3244
2022-08-17T10:05:19.544Z,3280
2022-08-17T10:06:36.649Z,3524
2022-08-17T10:07:53.753Z,3832
2022-08-17T10:09:10.857Z,4196
2022-08-17T10:10:26.977Z,4660
2022-08-17T10:11:44.081Z,5244
2022-08-17T10:13:01.185Z,5952
2022-08-17T10:14:18.289Z,6908
2022-08-17T10:15:35.394Z,7912
2022-08-17T10:16:52.498Z,8788
2022-08-17T10:18:09.602Z,9424
2022-08-17T10:19:26.706Z,9684
2022-08-17T10:20:43.810Z,9708
2022-08-17T10:22:00.914Z,9588
2022-08-17T10:23:18.018Z,9488
2022-08-17T10:24:35.122Z,9664
2022-08-17T10:25:52.227Z,10160
2022-08-17T10:27:08.347Z,10756
2022-08-17T10:28:25.451Z,11640
2022-08-17T10:29:42.555Z,12668
2022-08-17T10:30:59.659Z,12688
2022-08-17T10:32:16.763Z,13044
2022-08-17T10:33:33.867Z,13380
2022-08-17T10:34:50.972Z,13352
2022-08-17T10:36:08.076Z,13220
2022-08-17T10:37:25.181Z,13132
2022-08-17T10:38:42.285Z,12780
2022-08-17T10:39:59.390Z,12572
2022-08-17T10:41:16.494Z,12472
2022-08-17T10:42:33.599Z,12488
2022-08-17T10:43:49.719Z,12512
2022-08-17T10:45:06.824Z,12600
2022-08-17T10:46:23.926Z,12772
2022-08-17T10:47:41.030Z,13008
2022-08-17T10:48:58.135Z,13280
2022-08-17T10:50:15.240Z,13604
2022-08-17T10:51:32.344Z,13868
2022-08-17T10:52:49.449Z,14204
2022-08-17T10:54:06.553Z,14508
2022-08-17T10:55:23.658Z,14828
2022-08-17T10:56:40.763Z,15240
2022-08-17T10:57:57.867Z,15304
2022-08-17T10:59:14.972Z,15508
2022-08-17T11:00:31.093Z,15332
2022-08-17T11:01:48.198Z,15092
2022-08-17T11:03:05.302Z,14664
2022-08-17T11:04:22.406Z,13952
2022-08-17T11:05:39.510Z,12804
2022-08-17T11:06:56.614Z,11580
2022-08-17T11:08:13.718Z,10432
2022-08-17T11:09:30.822Z,9268
2022-08-17T11:10:47.927Z,8196
2022-08-17T11:12:05.031Z,7592
2022-08-17T11:13:22.135Z,7264
2022-08-17T11:14:39.239Z,7004
2022-08-17T11:15:56.343Z,6588
2022-08-17T11:17:12.463Z,6232
2022-08-17T11:18:29.567Z,6216
2022-08-17T11:19:46.671Z,6572
2022-08-17T11:21:03.776Z,7096
2022-08-17T11:22:20.881Z,7316
2022-08-17T11:23:37.983Z,7300
2022-08-17T11:24:55.088Z,7184
2022-08-17T11:26:12.192Z,7228
2022-08-17T11:27:29.297Z,7108
2022-08-17T11:28:46.401Z,6844
2022-08-17T11:30:03.506Z,6648
2022-08-17T11:31:20.610Z,6700
2022-08-17T11:32:37.715Z,6792
2022-08-17T11:33:53.836Z,6716
2022-08-17T11:35:10.941Z,6572
2022-08-17T11:36:28.045Z,6816
2022-08-17T11:37:45.150Z,7284
2022-08-17T11:39:02.255Z,7816
2022-08-17T11:40:19.359Z,8236
2022-08-17T11:41:36.464Z,8424
2022-08-17T11:42:53.569Z,8396
2022-08-17T11:44:10.673Z,8328
2022-08-17T11:45:27.778Z,8272
2022-08-17T11:46:44.882Z,8200
2022-08-17T11:48:01.987Z,8152
2022-08-17T11:49:19.092Z,8132
2022-08-17T11:50:35.212Z,8088
2022-08-17T11:51:52.317Z,7976
2022-08-17T11:53:09.421Z,7836
2022-08-17T11:54:26.525Z,7740
2022-08-17T11:55:43.630Z,7768
2022-08-17T11:57:00.735Z,7988
2022-08-17T11:58:16.855Z,8504
2022-08-17T11:59:33.960Z,8820
2022-08-17T12:00:51.064Z,9316
2022-08-17T12:02:08.168Z,9724
2022-08-17T12:03:25.272Z,10072
2022-08-17T12:04:42.376Z,10416
2022-08-17T12:05:59.481Z,10744
2022-08-17T12:07:16.585Z,11040
2022-08-17T12:08:33.689Z,11240
2022-08-17T12:09:50.793Z,11376
2022-08-17T12:11:07.898Z,11436
2022-08-17T12:12:25.002Z,11520
2022-08-17T12:13:42.106Z,11772
2022-08-17T12:14:58.227Z,11768
2022-08-17T12:16:15.331Z,11744
2022-08-17T12:17:32.435Z,11696
2022-08-17T12:18:49.540Z,11584
2022-08-17T12:20:06.644Z,11412
2022-08-17T12:21:23.748Z,11260
2022-08-17T12:22:40.853Z,11248
2022-08-17T12:23:57.957Z,11288
2022-08-17T12:25:15.062Z,11424
2022-08-17T12:26:32.166Z,12024
2022-08-17T12:27:49.270Z,12216
2022-08-17T12:29:06.375Z,14272
2022-08-17T12:30:23.479Z,14748
2022-08-17T12:31:39.599Z,14192
2022-08-17T12:32:56.704Z,14644
2022-08-17T12:34:13.808Z,15120
2022-08-17T12:35:30.912Z,14696
2022-08-17T12:36:48.017Z,14288
2022-08-17T12:38:05.121Z,13908
2022-08-17T12:39:22.226Z,13456
2022-08-17T12:40:39.331Z,12972
2022-08-17T12:41:56.435Z,12572
2022-08-17T12:43:13.540Z,12192
2022-08-17T12:44:30.644Z,11732
2022-08-17T12:45:47.749Z,11092
2022-08-17T12:47:04.853Z,10636
2022-08-17T12:48:20.974Z,10872
2022-08-17T12:49:38.078Z,10404
2022-08-17T12:50:55.183Z,10540
2022-08-17T12:52:12.288Z,10024
2022-08-17T12:53:29.392Z,9832
2022-08-17T12:54:46.497Z,9584
2022-08-17T12:56:03.601Z,9408
2022-08-17T12:57:20.706Z,9088
2022-08-17T12:58:37.810Z,9112
2022-08-17T12:59:54.915Z,9100
2022-08-17T13:01:12.019Z,9144
2022-08-17T13:02:29.125Z,8572
2022-08-17T13:03:46.229Z,9072
2022-08-17T13:05:02.350Z,9416
2022-08-17T13:06:19.454Z,9712
2022-08-17T13:07:36.556Z,9292
2022-08-17T13:08:53.661Z,8940
2022-08-17T13:10:10.765Z,9240
2022-08-17T13:11:27.869Z,9956
2022-08-17T13:12:44.973Z,10632
2022-08-17T13:14:02.078Z,10868
2022-08-17T13:15:19.182Z,10924
2022-08-17T13:16:36.286Z,11312
2022-08-17T13:17:53.390Z,11548
2022-08-17T13:19:10.495Z,11612
2022-08-17T13:20:27.599Z,11744
2022-08-17T13:21:43.719Z,11776
2022-08-17T13:23:00.823Z,11612
2022-08-17T13:24:17.928Z,11712
2022-08-17T13:25:35.033Z,11572
2022-08-17T13:26:52.137Z,11672
2022-08-17T13:28:09.242Z,11480
2022-08-17T13:29:26.347Z,11928
2022-08-17T13:30:43.451Z,10860
2022-08-17T13:32:00.556Z,12176
2022-08-17T13:33:17.661Z,11828
2022-08-17T13:34:34.766Z,11080
2022-08-17T13:35:51.870Z,10384
2022-08-17T13:37:08.974Z,9844
2022-08-17T13:38:25.095Z,9448
2022-08-17T13:39:42.199Z,9220
2022-08-17T13:40:59.304Z,9276
2022-08-17T13:42:16.408Z,9644
2022-08-17T13:43:33.511Z,10064
2022-08-17T13:44:50.615Z,10024
2022-08-17T13:46:07.720Z,10324
2022-08-17T13:47:24.824Z,10556
2022-08-17T13:48:41.929Z,10536
2022-08-17T13:49:59.033Z,10200
2022-08-17T13:51:16.137Z,9952
2022-08-17T13:52:33.241Z,10056
2022-08-17T13:53:50.345Z,10376
2022-08-17T13:55:06.465Z,10608
2022-08-17T13:56:23.569Z,9556
2022-08-17T13:57:40.673Z,10204
2022-08-17T13:58:57.777Z,11076
2022-08-17T14:00:14.881Z,11336
2022-08-17T14:01:31.985Z,11576
2022-08-17T14:02:49.089Z,11680
2022-08-17T14:04:06.192Z,11688
2022-08-17T14:05:23.297Z,11588
2022-08-17T14:06:40.401Z,11260
2022-08-17T14:07:57.506Z,9888
2022-08-17T14:09:14.610Z,9576
2022-08-17T14:10:31.714Z,9420
2022-08-17T14:11:47.834Z,9464
2022-08-17T14:13:04.938Z,9472
2022-08-17T14:14:22.042Z,9652
2022-08-17T14:15:39.146Z,9896
2022-08-17T14:16:56.250Z,9560
2022-08-17T14:18:13.354Z,9616
2022-08-17T14:19:30.458Z,9456
2022-08-17T14:20:47.563Z,9624
2022-08-17T14:22:04.668Z,8652
2022-08-17T14:23:21.772Z,8156
2022-08-17T14:24:38.876Z,7932
2022-08-17T14:25:55.980Z,8084
2022-08-17T14:27:13.084Z,8492
2022-08-17T14:28:29.205Z,8716
2022-08-17T14:29:46.309Z,8792
2022-08-17T14:31:03.413Z,8860
2022-08-17T14:32:20.518Z,8740
2022-08-17T14:33:37.622Z,8424
2022-08-17T14:34:54.727Z,8212
2022-08-17T14:36:11.830Z,8208
2022-08-17T14:37:28.934Z,8800
2022-08-17T14:38:46.038Z,9480
2022-08-17T14:40:03.142Z,9904
2022-08-17T14:41:20.246Z,9896
2022-08-17T14:42:37.350Z,9372
2022-08-17T14:43:54.453Z,8524
2022-08-17T14:45:10.573Z,7568
2022-08-17T14:46:27.677Z,6636
2022-08-17T14:47:44.781Z,5856
2022-08-17T14:49:01.885Z,5256
2022-08-17T14:50:18.989Z,4896
2022-08-17T14:51:36.094Z,4812
2022-08-17T14:52:53.198Z,5312
2022-08-17T14:54:10.302Z,6216
2022-08-17T14:55:27.406Z,7108
2022-08-17T14:56:44.510Z,7216
2022-08-17T14:58:01.614Z,6952
2022-08-17T14:59:18.718Z,6588
2022-08-17T15:00:35.822Z,7340
2022-08-17T15:01:51.942Z,7836
2022-08-17T15:03:09.046Z,9140
2022-08-17T15:04:26.150Z,10180
2022-08-17T15:05:43.255Z,10988
2022-08-17T15:07:00.359Z,11056
2022-08-17T15:08:17.462Z,11916
2022-08-17T15:09:34.568Z,11860
2022-08-17T15:10:51.672Z,11368
2022-08-17T15:12:08.775Z,10592
2022-08-17T15:13:25.879Z,9944
2022-08-17T15:14:42.983Z,9624
2022-08-17T15:16:00.087Z,9696
2022-08-17T15:17:17.191Z,9928
2022-08-17T15:18:33.311Z,10100
2022-08-17T15:19:50.415Z,9532
2022-08-17T15:21:07.519Z,8472
2022-08-17T15:22:24.623Z,7384
2022-08-17T15:23:41.727Z,6180
2022-08-17T15:24:58.831Z,5148
2022-08-17T15:26:15.935Z,4468
2022-08-17T15:27:33.039Z,4048
2022-08-17T15:28:50.143Z,4160
2022-08-17T15:30:07.247Z,4192
2022-08-17T15:31:24.351Z,4464
2022-08-17T15:32:41.455Z,4940
2022-08-17T15:33:58.559Z,5548
2022-08-17T15:35:14.677Z,6424
2022-08-17T15:36:31.781Z,7352
2022-08-17T15:37:48.884Z,8436
2022-08-17T15:39:05.989Z,8788
2022-08-17T15:40:23.091Z,8860
2022-08-17T15:41:40.194Z,8360
2022-08-17T15:42:57.298Z,8260
2022-08-17T15:44:14.402Z,7488
2022-08-17T15:45:31.506Z,7680
2022-08-17T15:46:48.610Z,8196
2022-08-17T15:48:05.714Z,8584
2022-08-17T15:49:22.819Z,8508
2022-08-17T15:50:39.923Z,8384
2022-08-17T15:51:56.044Z,8568
2022-08-17T15:53:13.148Z,8616
2022-08-17T15:54:30.252Z,8068
2022-08-17T15:55:47.356Z,7576
2022-08-17T15:57:04.460Z,6724
2022-08-17T15:58:21.564Z,5836
2022-08-17T15:59:38.669Z,5356
2022-08-17T16:00:55.773Z,5092
2022-08-17T16:02:12.878Z,5052
2022-08-17T16:03:29.982Z,4784
2022-08-17T16:04:47.086Z,4800
2022-08-17T16:06:04.191Z,5160
2022-08-17T16:07:21.295Z,6008
2022-08-17T16:08:37.416Z,6884
2022-08-17T16:09:54.520Z,7720
2022-08-17T16:11:11.625Z,8512
2022-08-17T16:12:28.729Z,8972
2022-08-17T16:13:45.834Z,9124
2022-08-17T16:15:02.938Z,9000
2022-08-17T16:16:19.058Z,8940
2022-08-17T16:17:36.162Z,9060
2022-08-17T16:18:53.268Z,8984
2022-08-17T16:20:10.372Z,8880
2022-08-17T16:21:27.476Z,8368
2022-08-17T16:22:44.581Z,7648
2022-08-17T16:24:01.686Z,6868
2022-08-17T16:25:18.790Z,6268
2022-08-17T16:26:35.894Z,5864
2022-08-17T16:27:52.999Z,5416
2022-08-17T16:29:10.103Z,5104
2022-08-17T16:30:27.207Z,4736
2022-08-17T16:31:44.312Z,4576
2022-08-17T16:33:00.433Z,4508
2022-08-17T16:34:17.537Z,4444
2022-08-17T16:35:34.641Z,4392
2022-08-17T16:36:51.745Z,4348
2022-08-17T16:38:08.847Z,4276
2022-08-17T16:39:25.951Z,4200
2022-08-17T16:40:43.055Z,4132
2022-08-17T16:42:00.159Z,4040
2022-08-17T16:43:17.263Z,3992
2022-08-17T16:44:34.367Z,3936
2022-08-17T16:45:51.472Z,3876
2022-08-17T16:47:08.576Z,3840
2022-08-17T16:48:25.680Z,3776
2022-08-17T16:49:41.800Z,3692
2022-08-17T16:50:58.904Z,3604
2022-08-17T16:52:16.008Z,3416
2022-08-17T16:53:33.113Z,3504
2022-08-17T16:54:50.217Z,3528
2022-08-17T16:56:07.321Z,3548
2022-08-17T16:57:24.425Z,3584
2022-08-17T16:58:41.529Z,3588
2022-08-17T16:59:58.633Z,3568
2022-08-17T17:01:15.737Z,3504
2022-08-17T17:02:32.841Z,3444
2022-08-17T17:03:49.945Z,3392
2022-08-17T17:05:07.049Z,3372
2022-08-17T17:06:23.169Z,3368
2022-08-17T17:07:40.273Z,3348
2022-08-17T17:08:57.378Z,3340
2022-08-17T17:10:14.482Z,3316
2022-08-17T17:11:31.586Z,3308
2022-08-17T17:12:48.690Z,3292
2022-08-17T17:14:05.794Z,3276
2022-08-17T17:15:22.898Z,3240
2022-08-17T17:16:40.002Z,3216
2022-08-17T17:17:57.106Z,3188
2022-08-17T17:19:14.210Z,3168
2022-08-17T17:20:31.314Z,3160